Time;durP1;ratioP1;P1;durP2;ratioP2;P2;SDS_P1;SDS_P2;PMS_P1;PMS_P2;Temp;Humidity;BMP_temperature;BMP_pressure;BME280_temperature;BME280_humidity;BME280_pressure;Samples;Min_cycle;Max_cycle;Signal;HPM_P1;HPM_P2
2024/02/02 00:02:00;;;;;;;11.35;4.10;;;6.90;99.90;;;;;;4158740;28;20033;-72
2024/02/02 00:04:01;;;;;;;20.40;4.80;;;6.90;99.90;;;;;;4158875;28;20041;-73
2024/02/02 00:06:01;;;;;;;16.92;5.00;;;6.90;99.90;;;;;;4155991;28;20443;-72
2024/02/02 00:08:02;;;;;;;14.48;4.43;;;6.90;99.90;;;;;;4157318;28;20060;-75
2024/02/02 00:10:03;;;;;;;18.50;5.30;;;6.90;99.90;;;;;;4157466;28;20026;-73
2024/02/02 00:12:06;;;;;;;20.45;5.45;;;6.80;99.90;;;;;;4154950;28;20041;-73
2024/02/02 00:14:06;;;;;;;14.82;4.82;;;6.90;99.90;;;;;;4159507;28;20034;-73
2024/02/02 00:16:07;;;;;;;18.73;5.15;;;6.90;99.90;;;;;;4157367;28;20034;-75
2024/02/02 00:18:08;;;;;;;15.57;4.25;;;6.80;99.90;;;;;;4158236;28;20120;-72
2024/02/02 00:20:10;;;;;;;15.43;4.55;;;6.90;99.90;;;;;;4140008;28;20096;-73
2024/02/02 00:22:11;;;;;;;21.73;5.15;;;6.90;99.90;;;;;;4159578;28;20033;-72
2024/02/02 00:24:12;;;;;;;18.88;4.95;;;6.90;99.90;;;;;;4158570;28;20064;-73
2024/02/02 00:26:12;;;;;;;12.57;4.68;;;6.90;99.90;;;;;;4156717;28;20426;-74
2024/02/02 00:28:13;;;;;;;14.77;5.13;;;6.90;99.90;;;;;;4157420;28;20390;-77
2024/02/02 00:30:14;;;;;;;16.42;5.20;;;6.80;99.90;;;;;;4157737;28;20479;-76
2024/02/02 00:32:14;;;;;;;23.42;5.78;;;6.80;99.90;;;;;;4157086;28;20422;-77
2024/02/02 00:34:15;;;;;;;20.00;6.13;;;6.90;99.90;;;;;;4157291;28;20426;-77
2024/02/02 00:36:16;;;;;;;14.20;4.88;;;6.90;99.90;;;;;;4156032;28;20053;-77
2024/02/02 00:38:16;;;;;;;14.50;4.88;;;6.90;99.90;;;;;;4158049;28;20151;-75
2024/02/02 00:40:17;;;;;;;23.17;5.93;;;6.90;99.90;;;;;;4140940;28;20042;-77
2024/02/02 00:42:18;;;;;;;13.00;4.78;;;6.90;99.90;;;;;;4157663;28;20033;-78
2024/02/02 00:44:18;;;;;;;19.02;6.05;;;6.90;99.90;;;;;;4157431;28;20095;-78
2024/02/02 00:46:19;;;;;;;18.65;6.22;;;6.90;99.90;;;;;;4139969;28;20102;-77
2024/02/02 00:48:19;;;;;;;15.82;4.57;;;6.90;99.90;;;;;;4154019;28;20037;-77
2024/02/02 00:50:20;;;;;;;17.02;5.40;;;6.90;99.90;;;;;;4158160;28;20041;-78
2024/02/02 00:52:20;;;;;;;16.80;4.93;;;6.90;99.90;;;;;;4158373;28;20120;-76
2024/02/02 00:54:21;;;;;;;15.40;4.97;;;6.90;99.90;;;;;;4157604;28;20064;-78
2024/02/02 00:56:23;;;;;;;20.23;6.43;;;6.90;99.90;;;;;;4157410;28;20047;-77
2024/02/02 00:58:24;;;;;;;26.70;6.47;;;6.80;99.90;;;;;;4154332;28;20560;-78
2024/02/02 01:00:25;;;;;;;21.80;5.80;;;6.80;99.90;;;;;;4157807;28;20029;-75
2024/02/02 01:02:26;;;;;;;18.80;6.03;;;6.80;99.90;;;;;;4141181;28;20041;-77
2024/02/02 01:04:27;;;;;;;18.05;5.90;;;6.80;99.90;;;;;;4157089;28;20053;-76
2024/02/02 01:06:28;;;;;;;20.40;5.78;;;6.90;99.90;;;;;;4157365;28;20487;-77
2024/02/02 01:08:28;;;;;;;20.38;6.00;;;6.80;99.90;;;;;;4156595;28;20037;-77
2024/02/02 01:10:29;;;;;;;21.17;6.47;;;6.80;99.90;;;;;;4158240;28;20518;-76
2024/02/02 01:12:29;;;;;;;14.27;5.50;;;6.70;99.90;;;;;;4158124;28;20036;-77
2024/02/02 01:14:30;;;;;;;19.02;5.75;;;6.70;99.90;;;;;;4155246;28;20069;-75
2024/02/02 01:16:31;;;;;;;21.83;6.78;;;6.80;99.90;;;;;;4137201;28;20627;-76
2024/02/02 01:18:32;;;;;;;20.58;6.13;;;6.80;99.90;;;;;;4137264;28;20455;-77
2024/02/02 01:20:33;;;;;;;15.30;6.35;;;6.80;99.90;;;;;;4156357;28;20083;-77
2024/02/02 01:22:34;;;;;;;16.73;6.30;;;6.80;99.90;;;;;;4140035;28;20087;-76
2024/02/02 01:24:34;;;;;;;23.10;6.80;;;6.80;99.90;;;;;;4156247;28;20395;-77
2024/02/02 01:26:35;;;;;;;17.58;5.85;;;6.80;99.90;;;;;;4138711;28;20532;-77
2024/02/02 01:28:36;;;;;;;17.48;5.97;;;6.80;99.90;;;;;;4155363;28;20147;-77
2024/02/02 01:30:37;;;;;;;19.27;6.65;;;6.80;99.90;;;;;;4157105;28;20439;-77
2024/02/02 01:32:38;;;;;;;18.38;6.32;;;6.80;99.90;;;;;;4158405;28;20116;-77
2024/02/02 01:34:39;;;;;;;21.77;6.75;;;6.80;99.90;;;;;;4157707;28;20049;-78
2024/02/02 01:36:39;;;;;;;18.27;6.35;;;6.80;99.90;;;;;;4156384;28;20041;-76
2024/02/02 01:38:41;;;;;;;19.42;6.43;;;6.80;99.90;;;;;;4157996;28;20038;-72
2024/02/02 01:40:41;;;;;;;20.80;6.22;;;6.80;99.90;;;;;;4158169;28;20499;-72
2024/02/02 01:42:42;;;;;;;22.63;6.35;;;6.80;99.90;;;;;;4157897;28;20045;-73
2024/02/02 01:44:43;;;;;;;24.35;6.95;;;6.80;99.90;;;;;;4156165;28;20397;-73
2024/02/02 01:46:46;;;;;;;18.73;6.93;;;6.70;99.90;;;;;;4154761;28;20113;-73
2024/02/02 01:48:47;;;;;;;18.75;6.75;;;6.80;99.90;;;;;;4157411;28;20041;-77
2024/02/02 01:50:48;;;;;;;20.60;6.10;;;6.80;99.90;;;;;;4157517;28;20038;-77
2024/02/02 01:52:48;;;;;;;20.77;6.20;;;6.80;99.90;;;;;;4158080;28;20038;-77
2024/02/02 01:54:49;;;;;;;22.17;6.35;;;6.80;99.90;;;;;;4123209;28;20093;-77
2024/02/02 01:56:50;;;;;;;25.35;7.10;;;6.80;99.90;;;;;;4156616;28;20487;-77
2024/02/02 01:58:50;;;;;;;16.58;6.03;;;6.80;99.90;;;;;;4157895;28;20072;-77
2024/02/02 02:00:51;;;;;;;18.10;6.32;;;6.80;99.90;;;;;;4152926;28;20029;-77
2024/02/02 02:02:52;;;;;;;16.58;5.97;;;6.90;99.90;;;;;;4156157;28;20044;-78
2024/02/02 02:04:53;;;;;;;14.70;5.57;;;6.80;99.90;;;;;;4156117;28;20124;-77
2024/02/02 02:06:54;;;;;;;27.02;6.28;;;6.80;99.90;;;;;;4153849;28;20056;-75
2024/02/02 02:08:55;;;;;;;19.83;5.47;;;6.80;99.90;;;;;;4157918;28;20042;-72
2024/02/02 02:10:56;;;;;;;22.83;5.70;;;6.80;99.90;;;;;;4155707;28;20095;-74
2024/02/02 02:12:57;;;;;;;16.23;4.73;;;6.70;99.90;;;;;;4153151;28;20068;-72
2024/02/02 02:14:58;;;;;;;18.13;6.13;;;6.80;99.90;;;;;;4143616;28;20375;-75
2024/02/02 02:16:59;;;;;;;17.02;5.07;;;6.80;99.90;;;;;;4159576;28;20395;-72
2024/02/02 02:19:02;;;;;;;19.23;5.30;;;6.80;99.90;;;;;;4143235;28;20072;-72
2024/02/02 02:21:23;;;;;;;20.98;5.55;;;6.80;99.90;;;;;;4159157;28;20037;-74
2024/02/02 02:23:26;;;;;;;18.30;5.15;;;6.70;99.90;;;;;;4159522;28;20110;-72
2024/02/02 02:25:26;;;;;;;17.20;5.45;;;6.80;99.90;;;;;;4158040;28;20037;-72
2024/02/02 02:27:27;;;;;;;16.83;5.30;;;6.80;99.90;;;;;;4140153;28;20026;-72
2024/02/02 02:29:27;;;;;;;18.10;5.22;;;6.80;99.90;;;;;;4159682;28;20495;-72
2024/02/02 02:31:28;;;;;;;16.25;5.43;;;6.80;99.90;;;;;;4159449;28;20041;-75
2024/02/02 02:33:29;;;;;;;18.48;5.82;;;6.70;99.90;;;;;;4159199;28;20120;-72
2024/02/02 02:35:29;;;;;;;14.90;5.57;;;6.80;99.90;;;;;;4140386;28;20592;-73
2024/02/02 02:37:30;;;;;;;18.48;5.30;;;6.80;99.90;;;;;;4141352;28;20445;-73
2024/02/02 02:39:30;;;;;;;16.95;5.47;;;6.80;99.90;;;;;;4153632;28;20380;-75
2024/02/02 02:41:31;;;;;;;19.10;5.13;;;6.80;99.90;;;;;;4157923;28;20068;-73
2024/02/02 02:43:32;;;;;;;18.63;4.93;;;6.70;99.90;;;;;;4157758;28;20037;-72
2024/02/02 02:45:32;;;;;;;15.82;5.50;;;6.80;99.90;;;;;;4139538;28;20072;-74
2024/02/02 02:47:42;;;;;;;20.38;5.20;;;6.80;99.90;;;;;;4137150;28;20117;-73
2024/02/02 02:49:42;;;;;;;23.58;5.20;;;6.80;99.90;;;;;;4132510;28;20640;-72
2024/02/02 02:51:43;;;;;;;17.90;4.82;;;6.80;99.90;;;;;;4152870;28;20041;-72
2024/02/02 02:53:43;;;;;;;14.10;4.60;;;6.80;99.90;;;;;;4155165;28;20045;-72
2024/02/02 02:55:44;;;;;;;17.25;4.00;;;6.80;99.90;;;;;;4136966;28;20398;-72
2024/02/02 02:57:45;;;;;;;22.50;5.30;;;6.90;99.90;;;;;;4155300;28;20454;-74
2024/02/02 02:59:45;;;;;;;25.67;6.53;;;6.80;99.90;;;;;;4151643;28;20389;-76
2024/02/02 03:01:46;;;;;;;19.85;5.05;;;6.80;99.90;;;;;;4147982;28;20037;-77
2024/02/02 03:03:46;;;;;;;18.08;5.78;;;6.90;99.90;;;;;;4151413;28;20038;-76
2024/02/02 03:05:47;;;;;;;16.17;4.93;;;6.90;99.90;;;;;;4134165;28;20026;-77
2024/02/02 03:07:48;;;;;;;14.05;4.78;;;6.90;99.90;;;;;;4151890;28;20096;-77
2024/02/02 03:09:48;;;;;;;15.63;4.72;;;6.90;99.90;;;;;;4158407;28;21030;-76
2024/02/02 03:11:49;;;;;;;14.85;5.13;;;6.90;99.90;;;;;;4153722;28;20030;-78
2024/02/02 03:13:50;;;;;;;18.92;4.93;;;6.90;99.90;;;;;;4149841;28;20030;-76
2024/02/02 03:15:50;;;;;;;21.33;5.10;;;7.00;99.90;;;;;;4155693;28;20041;-76
2024/02/02 03:17:51;;;;;;;13.50;4.40;;;7.00;99.90;;;;;;4152998;28;20113;-77
2024/02/02 03:19:51;;;;;;;17.55;4.20;;;7.00;99.90;;;;;;4152838;28;20037;-72
2024/02/02 03:21:52;;;;;;;16.50;5.20;;;7.00;99.90;;;;;;4153774;28;20515;-73
2024/02/02 03:23:52;;;;;;;12.07;4.30;;;7.00;99.90;;;;;;4137511;28;20601;-73
2024/02/02 03:25:53;;;;;;;16.35;4.88;;;7.00;99.90;;;;;;4151564;28;20038;-74
2024/02/02 03:27:54;;;;;;;18.05;5.15;;;7.00;99.90;;;;;;4135828;28;20077;-72
2024/02/02 03:29:54;;;;;;;15.70;4.70;;;7.00;99.90;;;;;;4139160;28;20507;-74
2024/02/02 03:31:55;;;;;;;17.55;5.20;;;7.10;99.90;;;;;;4156452;28;20025;-74
2024/02/02 03:33:57;;;;;;;24.10;5.70;;;7.00;99.90;;;;;;4137850;28;20038;-74
2024/02/02 03:35:58;;;;;;;19.95;5.22;;;7.00;99.90;;;;;;4154223;28;20071;-72
2024/02/02 03:37:58;;;;;;;16.42;4.85;;;6.90;99.90;;;;;;4157668;28;20513;-72
2024/02/02 03:39:59;;;;;;;22.25;5.50;;;7.00;99.90;;;;;;4140934;28;20603;-72
2024/02/02 03:42:00;;;;;;;14.50;5.13;;;7.00;99.90;;;;;;4152743;28;20037;-72
2024/02/02 03:44:00;;;;;;;25.33;5.90;;;6.90;99.90;;;;;;4139801;28;20038;-73
2024/02/02 03:46:01;;;;;;;13.05;4.95;;;6.90;99.90;;;;;;4139084;28;20046;-74
2024/02/02 03:48:01;;;;;;;21.77;5.53;;;6.90;99.90;;;;;;4158392;28;20160;-72
2024/02/02 03:50:02;;;;;;;16.73;6.30;;;6.90;99.90;;;;;;4157024;28;20044;-72
2024/02/02 03:52:07;;;;;;;18.30;5.80;;;6.80;99.90;;;;;;4157530;28;20034;-73
2024/02/02 03:54:07;;;;;;;19.67;5.57;;;6.80;99.90;;;;;;4150667;28;20589;-72
2024/02/02 03:56:08;;;;;;;22.15;5.20;;;6.90;99.90;;;;;;4156032;28;20072;-73
2024/02/02 03:58:08;;;;;;;22.08;5.82;;;6.80;99.90;;;;;;4135405;28;20532;-72
2024/02/02 04:00:09;;;;;;;23.98;5.70;;;6.90;99.90;;;;;;4154223;28;20025;-77
2024/02/02 04:02:11;;;;;;;19.00;5.38;;;6.90;99.90;;;;;;4158017;28;20505;-79
2024/02/02 04:04:11;;;;;;;19.50;5.10;;;6.80;99.90;;;;;;4151742;28;20562;-78
2024/02/02 04:06:12;;;;;;;20.20;5.07;;;6.90;99.90;;;;;;4151982;28;20117;-78
2024/02/02 04:08:12;;;;;;;19.30;4.32;;;6.80;99.90;;;;;;4154753;28;20483;-79
2024/02/02 04:10:14;;;;;;;19.65;5.55;;;6.80;99.90;;;;;;4136534;28;20502;-78
2024/02/02 04:12:15;;;;;;;22.87;6.33;;;6.90;99.90;;;;;;4158840;28;20037;-79
2024/02/02 04:14:16;;;;;;;18.92;4.72;;;6.80;99.90;;;;;;4155985;28;20106;-76
2024/02/02 04:16:16;;;;;;;21.25;4.88;;;6.90;99.90;;;;;;4157518;28;20032;-78
2024/02/02 04:18:17;;;;;;;17.40;5.15;;;6.80;99.90;;;;;;4157906;28;20806;-78
2024/02/02 04:20:18;;;;;;;23.95;5.78;;;6.90;99.90;;;;;;4158576;28;20438;-78
2024/02/02 04:22:19;;;;;;;19.17;5.32;;;6.90;99.90;;;;;;4156247;28;20492;-77
2024/02/02 04:24:20;;;;;;;16.52;4.72;;;6.80;99.90;;;;;;4136921;28;20049;-78
2024/02/02 04:26:20;;;;;;;20.80;5.15;;;6.80;99.90;;;;;;4155810;28;20389;-79
2024/02/02 04:28:21;;;;;;;18.90;5.43;;;6.90;99.90;;;;;;4153417;28;20053;-78
2024/02/02 04:30:21;;;;;;;17.75;4.60;;;6.90;99.90;;;;;;4135809;28;20076;-79
2024/02/02 04:32:22;;;;;;;19.13;5.05;;;6.90;99.90;;;;;;4146633;28;20038;-78
2024/02/02 04:34:23;;;;;;;18.33;5.15;;;6.90;99.90;;;;;;4150165;28;20040;-78
2024/02/02 04:36:23;;;;;;;16.67;5.45;;;6.90;99.90;;;;;;4150579;28;20037;-79
2024/02/02 04:38:24;;;;;;;14.25;4.07;;;6.90;99.90;;;;;;4153598;28;20073;-78
2024/02/02 04:40:24;;;;;;;16.38;4.85;;;7.00;99.90;;;;;;4138907;28;20036;-75
2024/02/02 04:42:25;;;;;;;19.15;5.30;;;7.00;99.90;;;;;;4155117;28;20080;-77
2024/02/02 04:44:26;;;;;;;13.60;3.97;;;7.00;99.90;;;;;;4156713;28;20037;-77
2024/02/02 04:46:27;;;;;;;17.27;4.85;;;7.00;99.90;;;;;;4151064;28;20096;-78
2024/02/02 04:48:27;;;;;;;15.30;4.60;;;7.00;99.90;;;;;;4160052;28;20044;-76
2024/02/02 04:50:28;;;;;;;18.17;4.75;;;7.00;99.90;;;;;;4154868;28;20033;-78
2024/02/02 04:52:29;;;;;;;15.15;4.70;;;7.00;99.90;;;;;;4157491;28;20060;-77
2024/02/02 04:54:29;;;;;;;11.68;5.05;;;7.00;99.90;;;;;;4152653;28;20526;-78
2024/02/02 04:56:30;;;;;;;13.10;4.80;;;7.00;99.90;;;;;;4149674;28;20620;-77
2024/02/02 04:58:30;;;;;;;17.45;4.97;;;7.00;99.90;;;;;;4153835;28;20509;-76
2024/02/02 05:00:31;;;;;;;16.65;5.10;;;7.00;99.90;;;;;;4153899;28;20041;-78
2024/02/02 05:02:32;;;;;;;16.98;4.95;;;7.00;99.90;;;;;;4164579;28;20029;-80
2024/02/02 05:04:32;;;;;;;15.32;4.80;;;7.00;99.90;;;;;;4157009;28;20041;-77
2024/02/02 05:06:33;;;;;;;21.42;5.38;;;7.00;99.90;;;;;;4152839;28;20041;-77
2024/02/02 05:08:33;;;;;;;14.90;4.60;;;6.90;99.90;;;;;;4153379;28;20062;-77
2024/02/02 05:10:34;;;;;;;15.77;4.70;;;6.90;99.90;;;;;;4153532;28;20037;-73
2024/02/02 05:12:35;;;;;;;20.95;4.82;;;6.90;99.90;;;;;;4155699;28;20053;-72
2024/02/02 05:14:35;;;;;;;17.30;4.93;;;6.90;99.90;;;;;;4153587;28;20037;-73
2024/02/02 05:16:36;;;;;;;19.38;4.40;;;6.90;99.90;;;;;;4152766;28;21122;-74
2024/02/02 05:18:36;;;;;;;19.70;5.38;;;6.90;99.90;;;;;;4139717;28;20061;-73
2024/02/02 05:20:38;;;;;;;16.35;4.78;;;6.90;99.90;;;;;;4135183;28;20034;-74
2024/02/02 05:22:39;;;;;;;13.50;4.50;;;6.90;99.90;;;;;;4139714;28;20029;-73
2024/02/02 05:24:39;;;;;;;20.85;5.20;;;6.90;99.90;;;;;;4155818;28;20041;-74
2024/02/02 05:26:40;;;;;;;14.20;4.38;;;6.80;99.90;;;;;;4156189;28;20132;-73
2024/02/02 05:28:40;;;;;;;21.67;5.15;;;6.90;99.90;;;;;;4158167;28;20038;-72
2024/02/02 05:30:41;;;;;;;16.42;5.15;;;6.90;99.90;;;;;;4155287;28;20030;-74
2024/02/02 05:32:42;;;;;;;19.52;5.25;;;6.90;99.90;;;;;;4140398;28;20038;-72
2024/02/02 05:34:43;;;;;;;18.45;4.72;;;6.90;99.90;;;;;;4156129;28;20082;-72
2024/02/02 05:36:44;;;;;;;13.43;4.00;;;6.80;99.90;;;;;;4150624;28;20125;-72
2024/02/02 05:38:45;;;;;;;16.45;4.90;;;6.80;99.90;;;;;;4134470;28;20506;-72
2024/02/02 05:40:46;;;;;;;18.77;4.95;;;6.80;99.90;;;;;;4136171;28;20073;-72
2024/02/02 05:42:46;;;;;;;15.13;4.55;;;6.80;99.90;;;;;;4140893;28;20034;-73
2024/02/02 05:44:47;;;;;;;14.98;4.22;;;6.80;99.90;;;;;;4135834;28;20053;-74
2024/02/02 05:46:47;;;;;;;16.60;5.05;;;6.80;99.90;;;;;;4154134;28;20107;-74
2024/02/02 05:48:48;;;;;;;18.08;5.40;;;6.70;99.90;;;;;;4139826;28;20042;-73
2024/02/02 05:50:48;;;;;;;12.77;4.28;;;6.80;99.90;;;;;;4160318;28;20443;-72
2024/02/02 05:52:49;;;;;;;14.98;4.22;;;6.70;99.90;;;;;;4159581;28;20458;-75
2024/02/02 05:54:50;;;;;;;17.17;5.20;;;6.80;99.90;;;;;;4138799;28;20380;-74
2024/02/02 05:56:50;;;;;;;12.75;4.40;;;6.80;99.90;;;;;;4145197;28;20581;-74
2024/02/02 05:58:51;;;;;;;13.30;4.20;;;6.80;99.90;;;;;;4161698;28;24566;-74
2024/02/02 06:00:51;;;;;;;17.85;5.03;;;6.80;99.90;;;;;;4146790;28;20069;-72
2024/02/02 06:03:11;;;;;;;16.65;4.45;;;6.80;99.90;;;;;;4140598;28;20107;-73
2024/02/02 06:05:32;;;;;;;14.32;4.32;;;6.80;99.90;;;;;;4163307;28;20039;-73
2024/02/02 06:07:51;;;;;;;17.75;5.05;;;6.80;99.90;;;;;;4075434;28;20045;-73
2024/02/02 06:10:11;;;;;;;16.60;4.80;;;6.80;99.90;;;;;;4125577;28;20052;-73
2024/02/02 06:12:30;;;;;;;14.75;3.92;;;6.80;99.90;;;;;;4086634;28;20040;-74
2024/02/02 06:14:49;;;;;;;16.08;5.25;;;6.80;99.90;;;;;;4110994;28;20513;-74
2024/02/02 06:17:10;;;;;;;26.45;5.85;;;6.70;99.90;;;;;;4130439;28;20406;-72
2024/02/02 06:19:29;;;;;;;12.73;4.55;;;6.80;99.90;;;;;;4133362;28;20132;-73
2024/02/02 06:21:48;;;;;;;19.15;4.32;;;6.80;99.90;;;;;;4099841;28;20111;-74
2024/02/02 06:24:07;;;;;;;12.77;4.18;;;6.70;99.90;;;;;;4106585;28;20450;-73
2024/02/02 06:26:27;;;;;;;16.90;4.80;;;6.80;99.90;;;;;;4133820;28;20049;-73
2024/02/02 06:28:46;;;;;;;20.65;5.80;;;6.80;99.90;;;;;;4101060;28;20037;-73
2024/02/02 06:31:05;;;;;;;17.85;5.75;;;6.80;99.90;;;;;;4136208;28;20563;-72
2024/02/02 06:33:24;;;;;;;15.02;4.68;;;6.70;99.90;;;;;;4112270;28;20553;-74
2024/02/02 06:35:44;;;;;;;13.35;4.93;;;6.70;99.90;;;;;;4135347;28;20029;-73
2024/02/02 06:38:03;;;;;;;21.00;6.03;;;6.70;99.90;;;;;;4133071;28;20049;-73
2024/02/02 06:40:22;;;;;;;18.52;6.10;;;6.70;99.90;;;;;;4083979;28;20107;-75
2024/02/02 06:42:41;;;;;;;18.77;5.75;;;6.70;99.90;;;;;;4133627;28;20029;-73
2024/02/02 06:45:01;;;;;;;21.08;6.53;;;6.70;99.90;;;;;;4091114;28;20421;-72
2024/02/02 06:47:20;;;;;;;18.17;5.25;;;6.70;99.90;;;;;;4090633;28;20042;-73
2024/02/02 06:49:39;;;;;;;13.82;5.93;;;6.70;99.90;;;;;;4112900;28;20037;-73
2024/02/02 06:51:58;;;;;;;19.95;6.18;;;6.70;99.90;;;;;;4135956;28;20055;-73
2024/02/02 06:54:18;;;;;;;24.60;7.53;;;6.70;99.90;;;;;;4123133;28;20211;-73
2024/02/02 06:56:41;;;;;;;19.63;6.13;;;6.70;99.90;;;;;;4130517;28;20280;-73
2024/02/02 06:59:01;;;;;;;20.73;5.82;;;6.70;99.90;;;;;;4131310;28;20146;-74
2024/02/02 07:01:20;;;;;;;23.40;6.57;;;6.70;99.90;;;;;;4141691;28;20456;-73
2024/02/02 07:03:39;;;;;;;20.70;5.90;;;6.70;99.90;;;;;;4120827;28;20029;-74
2024/02/02 07:05:59;;;;;;;15.68;5.07;;;6.70;99.90;;;;;;4132614;28;20447;-74
2024/02/02 07:08:19;;;;;;;18.48;6.35;;;6.70;99.90;;;;;;4127007;28;20049;-74
2024/02/02 07:10:39;;;;;;;18.75;5.35;;;6.70;99.90;;;;;;4119693;28;20120;-74
2024/02/02 07:13:01;;;;;;;18.70;5.30;;;6.70;99.90;;;;;;4127910;28;20045;-74
2024/02/02 07:15:22;;;;;;;21.70;6.13;;;6.70;99.90;;;;;;4085224;28;21607;-74
2024/02/02 07:17:41;;;;;;;23.50;6.25;;;6.70;99.90;;;;;;4134446;28;20040;-74
2024/02/02 07:20:04;;;;;;;17.63;5.78;;;6.70;99.90;;;;;;4098541;28;20057;-73
2024/02/02 07:22:41;;;;;;;17.63;5.18;;;6.70;99.90;;;;;;4120147;28;20049;-72
2024/02/02 07:25:01;;;;;;;16.75;5.72;;;6.70;99.90;;;;;;4106663;28;20040;-72
2024/02/02 07:27:51;;;;;;;18.15;5.15;;;6.70;99.90;;;;;;4126418;28;20048;-73
2024/02/02 07:30:12;;;;;;;17.15;5.13;;;6.70;99.90;;;;;;4131296;28;20509;-72
2024/02/02 07:32:32;;;;;;;22.15;5.28;;;6.70;99.90;;;;;;4128358;28;20052;-73
2024/02/02 07:34:51;;;;;;;18.45;5.22;;;6.70;99.90;;;;;;4129662;28;20044;-72
2024/02/02 07:37:30;;;;;;;20.30;4.60;;;6.70;99.90;;;;;;4131737;28;20067;-72
2024/02/02 07:39:51;;;;;;;14.48;4.47;;;6.70;99.90;;;;;;4135652;28;20041;-72
2024/02/02 07:42:10;;;;;;;13.65;4.47;;;6.70;99.90;;;;;;4131828;28;20398;-73
2024/02/02 07:44:29;;;;;;;21.80;4.72;;;6.70;99.90;;;;;;4135303;28;20055;-72
2024/02/02 07:46:48;;;;;;;23.55;5.82;;;6.80;99.90;;;;;;4104194;28;20041;-72
2024/02/02 07:49:08;;;;;;;19.98;5.28;;;6.80;99.90;;;;;;4106398;28;20048;-73
2024/02/02 07:51:27;;;;;;;11.68;4.28;;;6.80;99.90;;;;;;4105178;28;20573;-72
2024/02/02 07:53:46;;;;;;;13.88;4.53;;;6.80;99.90;;;;;;4128823;28;20153;-73
2024/02/02 07:56:05;;;;;;;13.15;4.03;;;6.80;99.90;;;;;;4114441;28;20117;-73
2024/02/02 07:58:25;;;;;;;15.00;4.90;;;6.90;99.90;;;;;;4131340;28;20048;-72
2024/02/02 08:00:44;;;;;;;16.65;4.57;;;7.00;99.90;;;;;;4122595;28;20586;-72
2024/02/02 08:03:05;;;;;;;18.70;4.65;;;7.10;99.90;;;;;;4090388;28;20044;-73
2024/02/02 08:05:26;;;;;;;17.15;4.43;;;7.10;99.90;;;;;;4140412;28;20061;-73
2024/02/02 08:07:27;;;;;;;16.27;4.78;;;7.10;99.90;;;;;;4154679;28;20069;-73
2024/02/02 08:09:27;;;;;;;16.23;3.90;;;7.10;99.90;;;;;;4156031;28;20423;-72
2024/02/02 08:11:35;;;;;;;13.60;3.80;;;7.10;99.90;;;;;;4117323;28;20400;-72
2024/02/02 08:13:35;;;;;;;14.52;4.50;;;7.20;99.90;;;;;;4156893;28;20483;-73
2024/02/02 08:15:37;;;;;;;19.85;4.55;;;7.20;99.90;;;;;;4152992;28;20116;-73
2024/02/02 08:17:38;;;;;;;10.93;3.63;;;7.20;99.90;;;;;;4153334;28;20049;-74
2024/02/02 08:19:38;;;;;;;16.25;4.78;;;7.20;99.90;;;;;;4146374;28;20041;-76
2024/02/02 08:21:39;;;;;;;17.63;4.22;;;7.30;99.90;;;;;;4151374;28;20482;-77
2024/02/02 08:23:40;;;;;;;15.32;4.53;;;7.30;99.90;;;;;;4148041;28;20510;-76
2024/02/02 08:25:40;;;;;;;14.45;3.83;;;7.30;99.90;;;;;;4149731;28;20687;-76
2024/02/02 08:27:41;;;;;;;16.45;4.68;;;7.30;99.90;;;;;;4133216;28;20049;-76
2024/02/02 08:29:41;;;;;;;13.77;3.72;;;7.40;99.90;;;;;;4156047;28;20045;-77
2024/02/02 08:31:44;;;;;;;18.83;4.55;;;7.40;99.90;;;;;;4151642;28;20037;-77
2024/02/02 08:33:45;;;;;;;23.90;4.88;;;7.40;99.90;;;;;;4137712;28;20030;-77
2024/02/02 08:35:46;;;;;;;13.68;3.88;;;7.50;99.90;;;;;;4149190;28;20475;-77
2024/02/02 08:37:48;;;;;;;17.70;4.70;;;7.60;99.90;;;;;;4152657;28;20407;-77
2024/02/02 08:39:49;;;;;;;;;;;7.70;99.90;;;;;;4154167;28;20038;-77
2024/02/02 08:41:50;;;;;;;16.42;4.40;;;7.70;99.90;;;;;;4133188;28;19917;-77
2024/02/02 08:43:51;;;;;;;20.70;4.57;;;7.80;99.90;;;;;;4141989;28;20041;-77
2024/02/02 08:46:12;;;;;;;14.25;4.30;;;7.80;99.90;;;;;;4135921;28;20040;-77
2024/02/02 08:48:26;;;;;;;15.90;4.68;;;7.80;99.90;;;;;;4153490;28;20040;-77
2024/02/02 08:50:27;;;;;;;15.30;4.75;;;7.80;99.90;;;;;;4150789;28;20044;-77
2024/02/02 08:52:31;;;;;;;21.42;4.80;;;7.90;99.90;;;;;;4151639;28;20033;-77
2024/02/02 08:54:36;;;;;;;17.20;4.88;;;8.00;99.90;;;;;;4153757;28;20506;-76
2024/02/02 08:56:37;;;;;;;17.30;4.43;;;8.10;99.90;;;;;;4150569;28;20107;-75
2024/02/02 08:58:38;;;;;;;12.75;3.90;;;8.20;99.90;;;;;;4150963;28;20418;-77
2024/02/02 09:00:40;;;;;;;14.02;4.28;;;8.40;99.90;;;;;;4148942;28;20399;-78
2024/02/02 09:03:13;;;;;;;14.55;5.50;;;8.50;99.90;;;;;;4151812;28;20495;-77
2024/02/02 09:05:23;;;;;;;16.88;4.30;;;8.50;99.90;;;;;;4116703;28;20045;-77
2024/02/02 09:07:23;;;;;;;17.45;4.65;;;8.60;99.90;;;;;;4153580;28;20127;-77
2024/02/02 09:09:24;;;;;;;23.60;6.25;;;8.60;99.90;;;;;;4153171;28;20041;-77
2024/02/02 09:11:27;;;;;;;18.40;4.63;;;8.60;99.90;;;;;;4151105;28;20041;-76
2024/02/02 09:13:34;;;;;;;18.92;4.93;;;8.60;99.90;;;;;;4134392;28;21655;-77
2024/02/02 09:15:34;;;;;;;16.48;3.85;;;8.60;99.90;;;;;;4139576;28;20046;-77
2024/02/02 09:17:35;;;;;;;18.60;4.50;;;8.60;99.90;;;;;;4119729;28;20153;-76
2024/02/02 09:19:45;;;;;;;17.75;4.78;;;8.60;99.90;;;;;;4152759;28;20037;-76
2024/02/02 09:21:46;;;;;;;14.93;4.13;;;8.60;99.90;;;;;;4132204;28;20600;-77
2024/02/02 09:23:50;;;;;;;18.55;4.93;;;8.60;99.90;;;;;;4144425;28;20065;-77
2024/02/02 09:25:51;;;;;;;16.02;4.07;;;8.60;99.90;;;;;;4143095;28;20039;-76
2024/02/02 09:27:52;;;;;;;16.27;4.22;;;8.60;99.90;;;;;;4150428;28;20376;-78
2024/02/02 09:29:54;;;;;;;19.10;4.57;;;8.60;99.90;;;;;;4154321;28;20049;-74
2024/02/02 09:31:54;;;;;;;16.45;4.78;;;8.50;99.90;;;;;;4142293;28;20053;-74
2024/02/02 09:33:55;;;;;;;19.60;4.63;;;8.50;99.90;;;;;;4137541;28;20845;-74
2024/02/02 09:35:57;;;;;;;23.80;4.38;;;8.50;99.90;;;;;;4132475;28;20064;-74
2024/02/02 09:37:57;;;;;;;18.05;4.63;;;8.50;99.90;;;;;;4117746;28;20077;-75
2024/02/02 09:39:58;;;;;;;21.05;5.63;;;8.50;99.90;;;;;;4151337;28;20025;-74
2024/02/02 09:42:14;;;;;;;18.08;5.10;;;8.50;99.90;;;;;;4150978;28;20537;-74
2024/02/02 09:44:27;;;;;;;21.08;5.50;;;8.50;99.90;;;;;;4133459;28;20534;-75
2024/02/02 09:46:51;;;;;;;16.67;4.88;;;8.40;99.90;;;;;;4152311;28;20044;-74
2024/02/02 09:49:26;;;;;;;14.93;4.60;;;8.50;99.90;;;;;;4138556;28;20027;-74
2024/02/02 09:51:43;;;;;;;20.67;5.18;;;8.50;99.90;;;;;;4150758;28;20582;-74
2024/02/02 09:54:03;;;;;;;21.40;5.97;;;8.50;99.90;;;;;;4151567;28;20026;-74
2024/02/02 09:56:38;;;;;;;19.67;5.55;;;8.40;99.90;;;;;;4151017;28;20121;-74
2024/02/02 09:59:00;;;;;;;20.38;5.20;;;8.40;99.90;;;;;;4121979;28;20065;-74
2024/02/02 10:01:19;;;;;;;18.33;4.93;;;8.50;99.90;;;;;;4143094;28;20045;-73
2024/02/02 10:03:30;;;;;;;24.42;5.57;;;8.40;99.90;;;;;;4152157;28;20029;-75
2024/02/02 10:05:49;;;;;;;17.60;4.82;;;8.40;99.90;;;;;;4132947;28;20101;-74
2024/02/02 10:08:12;;;;;;;18.08;5.53;;;8.40;99.90;;;;;;4148885;28;20045;-74
2024/02/02 10:10:20;;;;;;;;;;;8.40;99.90;;;;;;4144708;28;20038;-75
2024/02/02 10:12:51;;;;;;;21.48;5.20;;;8.40;99.90;;;;;;4151215;28;20393;-74
2024/02/02 10:15:20;;;;;;;19.50;5.38;;;8.40;99.90;;;;;;4148435;28;20188;-73
2024/02/02 10:17:42;;;;;;;12.82;4.82;;;8.40;99.90;;;;;;4151974;28;20029;-74
2024/02/02 10:20:12;;;;;;;15.18;4.85;;;8.40;99.90;;;;;;4151064;28;20399;-74
2024/02/02 10:22:21;;;;;;;16.65;5.28;;;8.40;99.90;;;;;;4145202;28;20052;-74
2024/02/02 10:24:45;;;;;;;14.98;5.30;;;8.40;99.90;;;;;;4148761;28;20033;-75
2024/02/02 10:27:07;;;;;;;18.73;5.28;;;8.40;99.90;;;;;;4141236;28;20048;-75
2024/02/02 10:29:11;;;;;;;23.83;6.47;;;8.40;99.90;;;;;;4151812;28;20042;-75
2024/02/02 10:31:29;;;;;;;18.30;5.65;;;8.30;99.90;;;;;;4151483;28;20080;-74
2024/02/02 10:33:57;;;;;;;19.10;5.22;;;8.30;99.90;;;;;;4154199;28;20487;-74
2024/02/02 10:36:00;;;;;;;16.55;5.70;;;8.30;99.90;;;;;;4154135;28;20124;-75
2024/02/02 10:38:19;;;;;;;22.48;5.75;;;8.30;99.90;;;;;;4152561;28;20038;-74
2024/02/02 10:40:39;;;;;;;17.17;5.03;;;8.30;99.90;;;;;;4150986;28;20487;-75
2024/02/02 10:43:23;;;;;;;16.95;5.18;;;8.30;99.90;;;;;;4157790;28;20092;-73
2024/02/02 10:45:34;;;;;;;22.10;6.28;;;8.30;99.90;;;;;;4156753;28;20512;-74
2024/02/02 10:48:02;;;;;;;17.90;5.97;;;8.30;99.90;;;;;;4156213;28;20061;-74
2024/02/02 10:50:05;;;;;;;26.17;6.47;;;8.30;99.90;;;;;;4154653;28;20033;-74
2024/02/02 10:52:14;;;;;;;18.05;6.45;;;8.30;99.90;;;;;;4141894;28;20045;-74
2024/02/02 10:54:23;;;;;;;20.02;6.38;;;8.30;99.90;;;;;;4156872;28;20049;-75
2024/02/02 10:56:38;;;;;;;16.75;5.68;;;8.30;99.90;;;;;;4153765;28;20356;-74
2024/02/02 10:58:45;;;;;;;17.52;6.20;;;8.40;99.90;;;;;;4155882;28;20560;-74
2024/02/02 11:01:01;;;;;;;19.70;5.38;;;8.40;99.90;;;;;;4150362;28;20040;-74